createdAt,value
2022-12-03T00:01:57.830Z,158654.00
2022-12-03T00:05:02.217Z,158656.66
2022-12-03T00:08:06.850Z,158656.66
2022-12-03T00:11:11.171Z,158673.56
2022-12-03T00:14:15.130Z,158682.69
2022-12-03T00:17:19.181Z,158677.47
2022-12-03T00:20:24.540Z,158680.06
2022-12-03T00:23:28.873Z,158687.84
2022-12-03T00:26:32.875Z,158661.88
2022-12-03T00:29:37.025Z,158680.06
2022-12-03T00:32:41.139Z,158680.06
2022-12-03T00:35:45.180Z,158683.97
2022-12-03T00:38:49.580Z,158664.44
2022-12-03T00:41:53.606Z,158689.16
2022-12-03T00:44:57.543Z,158672.25
2022-12-03T00:48:01.857Z,158667.03
2022-12-03T00:51:06.340Z,158648.84
2022-12-03T00:54:10.689Z,158628.03
2022-12-03T00:57:15.011Z,158634.50
2022-12-03T01:00:19.074Z,158641.06
2022-12-03T01:03:23.191Z,158652.75
2022-12-03T01:06:27.438Z,158659.22
2022-12-03T01:09:31.796Z,158655.34
2022-12-03T01:12:36.018Z,158672.25
2022-12-03T01:15:40.416Z,158656.66
2022-12-03T01:18:46.218Z,158638.41
2022-12-03T01:21:51.694Z,158659.22
2022-12-03T01:24:57.389Z,158647.53
2022-12-03T01:28:01.512Z,158646.22
2022-12-03T01:31:41.008Z,158643.63
2022-12-03T01:34:47.763Z,158641.06
2022-12-03T01:37:51.732Z,158618.91
2022-12-03T01:40:56.025Z,158638.41
2022-12-03T01:44:01.277Z,158633.25
2022-12-03T01:47:07.425Z,158609.78
2022-12-03T01:50:27.274Z,158612.44
2022-12-03T01:53:32.399Z,158631.94
2022-12-03T01:56:36.426Z,158625.41
2022-12-03T01:59:40.236Z,158616.31
2022-12-03T02:02:44.831Z,158626.72
2022-12-03T02:05:49.223Z,158625.41
2022-12-03T02:08:59.430Z,158633.25
2022-12-03T02:12:03.739Z,158635.81
2022-12-03T02:15:09.264Z,158622.81
2022-12-03T02:18:13.302Z,158625.41
2022-12-03T02:21:35.067Z,158618.91
2022-12-03T02:24:43.875Z,158600.66
2022-12-03T02:27:48.536Z,158615.00
2022-12-03T02:30:52.639Z,158628.03
2022-12-03T02:33:56.884Z,158615.00
2022-12-03T02:37:01.863Z,158630.59
2022-12-03T02:40:12.202Z,158616.31
2022-12-03T02:43:17.532Z,158643.63
2022-12-03T02:46:21.494Z,158659.22
2022-12-03T02:49:25.458Z,158652.75
2022-12-03T02:52:29.872Z,158637.16
2022-12-03T02:55:37.315Z,158648.84
2022-12-03T02:58:44.396Z,158638.41
2022-12-03T03:01:49.329Z,158643.63
2022-12-03T03:04:55.026Z,158656.66
2022-12-03T03:08:00.622Z,158643.63
2022-12-03T03:11:05.148Z,158635.81
2022-12-03T03:14:09.272Z,158615.00
2022-12-03T03:17:13.401Z,158641.06
2022-12-03T03:20:18.641Z,158628.03
2022-12-03T03:23:23.936Z,158617.59
2022-12-03T03:26:27.880Z,158628.03
2022-12-03T03:29:33.731Z,158638.41
2022-12-03T03:32:38.438Z,158624.13
2022-12-03T03:35:44.691Z,158618.91
2022-12-03T03:38:49.290Z,158615.00
2022-12-03T03:41:53.409Z,158615.00
2022-12-03T03:44:58.466Z,158626.72
2022-12-03T03:48:02.664Z,158612.44
2022-12-03T03:51:09.433Z,158630.59
2022-12-03T03:54:13.959Z,158604.56
2022-12-03T03:57:18.009Z,158617.59
2022-12-03T04:00:22.095Z,158618.91
2022-12-03T04:03:27.131Z,158635.81
2022-12-03T04:06:30.871Z,158642.31
2022-12-03T04:09:34.791Z,158635.81
2022-12-03T04:12:56.788Z,158654.00
2022-12-03T04:16:00.905Z,158617.59
2022-12-03T04:19:04.789Z,158604.56
2022-12-03T04:22:27.067Z,158618.91
2022-12-03T04:25:50.034Z,158599.41
2022-12-03T04:28:54.029Z,158583.75
2022-12-03T04:32:16.819Z,158607.22
2022-12-03T04:35:39.701Z,158578.59
2022-12-03T04:38:43.633Z,158588.97
2022-12-03T04:41:47.801Z,158594.19
2022-12-03T04:44:52.689Z,158600.66
2022-12-03T04:47:56.960Z,158594.19
2022-12-03T04:51:00.811Z,158582.50
2022-12-03T04:54:04.956Z,158564.25
2022-12-03T04:57:10.143Z,158588.97
2022-12-03T05:00:14.568Z,158565.56
2022-12-03T05:03:18.595Z,158566.88
2022-12-03T05:06:23.004Z,158568.16
2022-12-03T05:09:26.949Z,158561.69
2022-12-03T05:12:30.880Z,158577.28
2022-12-03T05:15:34.915Z,158561.69
2022-12-03T05:18:38.835Z,158569.47
2022-12-03T05:21:43.074Z,158569.47
2022-12-03T05:24:47.279Z,158582.50
2022-12-03T05:27:51.436Z,158552.56
2022-12-03T05:30:55.316Z,158565.56
2022-12-03T05:33:59.303Z,158552.56
2022-12-03T05:37:03.540Z,158551.25
2022-12-03T05:40:08.232Z,158575.97
2022-12-03T05:43:12.229Z,158566.88
2022-12-03T05:46:16.440Z,158591.59
2022-12-03T05:49:20.550Z,158565.56
2022-12-03T05:52:24.485Z,158586.38
2022-12-03T05:55:28.773Z,158573.38
2022-12-03T05:58:32.398Z,158585.06
2022-12-03T06:01:36.125Z,158591.59
2022-12-03T06:04:40.213Z,158599.41
2022-12-03T06:07:44.143Z,158599.41
2022-12-03T06:10:48.387Z,158611.13
2022-12-03T06:13:52.409Z,158624.13
2022-12-03T06:16:56.583Z,158611.13
2022-12-03T06:20:00.572Z,158607.22
2022-12-03T06:23:05.196Z,158590.28
2022-12-03T06:26:08.921Z,158625.41
2022-12-03T06:29:12.749Z,158598.09
2022-12-03T06:32:16.724Z,158602.00
2022-12-03T06:35:20.873Z,158611.13
2022-12-03T06:38:24.830Z,158596.78
2022-12-03T06:41:28.539Z,158609.78
2022-12-03T06:44:32.276Z,158622.81
2022-12-03T06:47:36.566Z,158617.59
2022-12-03T06:50:40.379Z,158612.44
2022-12-03T06:53:44.337Z,158612.44
2022-12-03T06:56:48.107Z,158591.59
2022-12-03T06:59:52.328Z,158602.00
2022-12-03T07:02:56.920Z,158591.59
2022-12-03T07:06:00.938Z,158616.31
2022-12-03T07:09:04.750Z,158621.50
2022-12-03T07:12:08.741Z,158598.09
2022-12-03T07:15:12.991Z,158590.28
2022-12-03T07:18:17.084Z,158603.31
2022-12-03T07:21:21.361Z,158628.03
2022-12-03T07:24:25.136Z,158625.41
2022-12-03T07:27:29.081Z,158620.22
2022-12-03T07:30:32.868Z,158624.13
2022-12-03T07:33:36.740Z,158608.53
2022-12-03T07:36:40.495Z,158618.91
2022-12-03T07:39:44.332Z,158609.78
2022-12-03T07:42:48.225Z,158590.28
2022-12-03T07:45:52.296Z,158596.78
2022-12-03T07:48:56.362Z,158598.09
2022-12-03T07:52:00.397Z,158617.59
2022-12-03T07:55:04.887Z,158628.03
2022-12-03T07:58:09.372Z,158620.22
2022-12-03T08:01:13.468Z,158630.59
2022-12-03T08:04:18.944Z,158657.97
2022-12-03T08:07:23.095Z,158656.66
2022-12-03T08:10:27.151Z,158643.63
2022-12-03T08:13:34.106Z,158652.75
2022-12-03T08:16:39.524Z,158651.44
2022-12-03T08:19:46.867Z,158637.16
2022-12-03T08:22:52.616Z,158639.72
2022-12-03T08:26:02.014Z,158657.97
2022-12-03T08:29:11.626Z,158673.56
2022-12-03T08:32:16.051Z,158687.84
2022-12-03T08:35:24.795Z,158676.16
2022-12-03T08:38:29.675Z,158669.66
2022-12-03T08:41:53.764Z,158687.84
2022-12-03T08:45:29.346Z,158729.44
2022-12-03T08:48:34.381Z,158734.69
2022-12-03T08:51:38.566Z,158748.97
2022-12-03T08:54:47.667Z,158778.91
2022-12-03T08:57:51.692Z,158773.69
2022-12-03T09:01:33.247Z,158786.72
2022-12-03T09:04:47.429Z,158784.13
2022-12-03T09:07:51.546Z,158807.53
2022-12-03T09:10:55.571Z,158825.78
2022-12-03T09:13:59.731Z,158780.22
2022-12-03T09:17:03.750Z,158801.06
2022-12-03T09:20:08.351Z,158777.59
2022-12-03T09:23:12.559Z,158755.50
2022-12-03T09:26:16.686Z,158765.88
2022-12-03T09:29:20.615Z,158746.38
2022-12-03T09:32:25.025Z,158751.59
2022-12-03T09:35:29.140Z,158739.88
2022-12-03T09:38:33.416Z,158752.88
2022-12-03T09:41:37.565Z,158730.78
2022-12-03T09:44:42.285Z,158742.47
2022-12-03T09:47:49.203Z,158737.25
2022-12-03T09:50:52.979Z,158725.56
2022-12-03T09:53:59.683Z,158773.69
2022-12-03T09:57:04.294Z,158758.09
2022-12-03T10:00:19.784Z,158780.22
2022-12-03T10:03:29.999Z,158772.44
2022-12-03T10:06:34.460Z,158773.69
2022-12-03T10:09:38.614Z,158799.75
2022-12-03T10:12:42.831Z,158823.16
2022-12-03T10:15:48.683Z,158847.91
2022-12-03T10:18:55.486Z,158836.19
2022-12-03T10:21:59.390Z,158885.66
2022-12-03T10:25:12.807Z,158936.47
2022-12-03T10:28:26.780Z,158900.00
2022-12-03T10:31:35.461Z,158883.09
2022-12-03T10:34:41.804Z,158900.00
2022-12-03T10:37:58.361Z,158896.09
2022-12-03T10:41:20.496Z,158880.50
2022-12-03T10:44:26.012Z,158872.63
2022-12-03T10:47:30.310Z,158877.84
2022-12-03T10:50:34.751Z,158898.69
2022-12-03T10:53:40.871Z,158893.47
2022-12-03T10:56:46.993Z,158893.47
2022-12-03T10:59:51.333Z,158945.59
2022-12-03T11:02:57.138Z,158955.94
2022-12-03T11:06:03.480Z,158953.34
2022-12-03T11:09:17.989Z,158935.16
2022-12-03T11:12:28.289Z,158924.75
2022-12-03T11:15:44.900Z,158944.28
2022-12-03T11:18:54.977Z,158979.41
2022-12-03T11:22:04.955Z,158993.72
2022-12-03T11:25:27.338Z,158968.97
2022-12-03T11:28:33.079Z,158966.38
2022-12-03T11:31:47.690Z,158983.31
2022-12-03T11:34:51.906Z,158995.03
2022-12-03T11:38:35.080Z,158998.94
2022-12-03T11:41:39.297Z,158991.13
2022-12-03T11:44:43.408Z,158974.19
2022-12-03T11:48:00.157Z,158980.69
2022-12-03T11:51:04.107Z,158983.31
2022-12-03T11:54:16.495Z,158995.03
2022-12-03T11:57:39.631Z,158959.84
2022-12-03T12:00:56.015Z,158932.56
2022-12-03T12:04:00.676Z,158950.81
2022-12-03T12:07:04.820Z,158955.94
2022-12-03T12:10:09.293Z,158983.31
2022-12-03T12:13:27.600Z,158993.72
2022-12-03T12:16:52.512Z,158993.72
2022-12-03T12:20:27.004Z,158980.69
2022-12-03T12:23:31.192Z,158972.88
2022-12-03T12:26:35.102Z,158992.41
2022-12-03T12:29:41.129Z,158942.97
2022-12-03T12:32:50.155Z,158911.72
2022-12-03T12:35:54.268Z,158944.28
2022-12-03T12:38:59.766Z,158937.78
2022-12-03T12:42:19.152Z,158918.22
2022-12-03T12:45:28.540Z,158911.72
2022-12-03T12:48:35.248Z,158893.47
2022-12-03T12:51:47.765Z,158903.91
2022-12-03T12:54:52.025Z,158902.59
2022-12-03T12:58:02.225Z,158871.38
2022-12-03T13:01:11.427Z,158879.16
2022-12-03T13:04:24.087Z,158858.34
2022-12-03T13:07:28.186Z,158870.03
2022-12-03T13:10:39.038Z,158854.44
2022-12-03T13:13:44.525Z,158877.84
2022-12-03T13:16:51.099Z,158896.09
2022-12-03T13:20:05.421Z,158870.03
2022-12-03T13:23:31.576Z,158871.38
2022-12-03T13:26:39.705Z,158859.66
2022-12-03T13:29:44.857Z,158868.72
2022-12-03T13:32:49.332Z,158886.97
2022-12-03T13:35:55.597Z,158880.50
2022-12-03T13:38:59.808Z,158911.72
2022-12-03T13:42:42.294Z,158909.13
2022-12-03T13:45:47.634Z,158903.91
2022-12-03T13:48:52.072Z,158928.66
2022-12-03T13:51:56.147Z,158928.66
2022-12-03T13:55:03.434Z,158923.44
2022-12-03T13:58:07.444Z,158922.13
2022-12-03T14:01:11.831Z,158919.53
2022-12-03T14:04:16.148Z,158927.34
2022-12-03T14:07:20.535Z,158933.88
2022-12-03T14:10:24.691Z,158942.97
2022-12-03T14:13:29.052Z,158940.38
2022-12-03T14:16:33.711Z,158919.53
2022-12-03T14:19:38.238Z,158927.34
2022-12-03T14:22:42.166Z,158907.81
2022-12-03T14:25:45.908Z,158894.78
2022-12-03T14:28:50.016Z,158889.56
2022-12-03T14:31:54.170Z,158871.38
2022-12-03T14:34:58.045Z,158875.28
2022-12-03T14:38:02.113Z,158855.75
2022-12-03T14:41:26.296Z,158853.13
2022-12-03T14:44:30.374Z,158854.44
2022-12-03T14:47:34.463Z,158855.75
2022-12-03T14:50:38.612Z,158838.81
2022-12-03T14:53:42.580Z,158846.63
2022-12-03T14:56:46.746Z,158833.59
2022-12-03T14:59:51.592Z,158814.09
2022-12-03T15:02:55.694Z,158806.28
2022-12-03T15:06:00.655Z,158812.78
2022-12-03T15:09:05.162Z,158803.66
2022-12-03T15:12:09.376Z,158812.78
2022-12-03T15:15:13.785Z,158823.16
2022-12-03T15:18:18.509Z,158811.44
2022-12-03T15:21:22.619Z,158824.47
2022-12-03T15:24:26.873Z,158808.88
2022-12-03T15:27:30.929Z,158829.69
2022-12-03T15:30:37.978Z,158836.19
2022-12-03T15:33:41.824Z,158844.00
2022-12-03T15:36:45.958Z,158837.50
2022-12-03T15:39:50.187Z,158833.59
2022-12-03T15:42:54.472Z,158834.91
2022-12-03T15:45:58.584Z,158814.09
2022-12-03T15:49:02.637Z,158840.09
2022-12-03T15:52:07.901Z,158857.03
2022-12-03T15:55:11.946Z,158832.28
2022-12-03T15:58:15.977Z,158815.34
2022-12-03T16:01:19.937Z,158844.00
2022-12-03T16:04:24.094Z,158823.16
2022-12-03T16:07:28.458Z,158834.91
2022-12-03T16:10:32.885Z,158815.34
2022-12-03T16:13:36.959Z,158812.78
2022-12-03T16:16:41.196Z,158816.66
2022-12-03T16:19:46.046Z,158802.38
2022-12-03T16:22:51.086Z,158838.81
2022-12-03T16:25:55.032Z,158844.00
2022-12-03T16:28:58.993Z,158844.00
2022-12-03T16:32:03.281Z,158818.00
2022-12-03T16:35:07.447Z,158834.91
2022-12-03T16:38:11.543Z,158844.00
2022-12-03T16:41:15.662Z,158837.50
2022-12-03T16:44:31.191Z,158829.69
2022-12-03T16:47:35.248Z,158812.78
2022-12-03T16:50:39.938Z,158823.16
2022-12-03T16:53:44.076Z,158833.59
2022-12-03T16:56:47.998Z,158793.25
2022-12-03T16:59:52.327Z,158781.56
2022-12-03T17:02:56.787Z,158791.94
2022-12-03T17:06:01.770Z,158812.78
2022-12-03T17:09:05.801Z,158823.16
2022-12-03T17:12:09.645Z,158818.00
2022-12-03T17:15:14.057Z,158799.75
2022-12-03T17:18:18.273Z,158802.38
2022-12-03T17:21:22.550Z,158802.38
2022-12-03T17:24:26.676Z,158788.03
2022-12-03T17:27:30.707Z,158804.97
2022-12-03T17:30:35.081Z,158799.75
2022-12-03T17:33:40.149Z,158816.66
2022-12-03T17:36:44.449Z,158841.41
2022-12-03T17:39:48.530Z,158831.00
2022-12-03T17:42:52.836Z,158838.81
2022-12-03T17:45:57.231Z,158821.91
2022-12-03T17:49:01.146Z,158827.13
2022-12-03T17:52:05.564Z,158832.28
2022-12-03T17:55:12.750Z,158838.81
2022-12-03T17:58:20.308Z,158831.00
2022-12-03T18:01:24.481Z,158838.81
2022-12-03T18:04:28.696Z,158832.28
2022-12-03T18:07:33.240Z,158834.91
2022-12-03T18:10:37.409Z,158857.03
2022-12-03T18:13:41.555Z,158851.84
2022-12-03T18:16:45.673Z,158853.13
2022-12-03T18:19:49.973Z,158847.91
2022-12-03T18:22:54.152Z,158850.53
2022-12-03T18:25:58.632Z,158854.44
2022-12-03T18:29:02.739Z,158859.66
2022-12-03T18:32:27.246Z,158840.09
2022-12-03T18:35:32.532Z,158829.69
2022-12-03T18:38:36.267Z,158845.31
2022-12-03T18:41:40.432Z,158833.59
2022-12-03T18:44:49.448Z,158827.13
2022-12-03T18:47:54.774Z,158838.81
2022-12-03T18:50:58.881Z,158821.91
2022-12-03T18:54:02.849Z,158815.34
2022-12-03T18:57:07.746Z,158829.69
2022-12-03T19:00:13.813Z,158849.22
2022-12-03T19:03:18.340Z,158841.41
2022-12-03T19:06:22.281Z,158841.41
2022-12-03T19:09:26.549Z,158837.50
2022-12-03T19:12:31.103Z,158849.22
2022-12-03T19:15:39.343Z,158870.03
2022-12-03T19:18:43.807Z,158859.66
2022-12-03T19:21:47.923Z,158842.72
2022-12-03T19:24:51.966Z,158836.19
2022-12-03T19:27:57.016Z,158844.00
2022-12-03T19:31:10.284Z,158851.84
2022-12-03T19:34:14.312Z,158833.59
2022-12-03T19:37:20.639Z,158841.41
2022-12-03T19:40:24.946Z,158842.72
2022-12-03T19:43:29.588Z,158834.91
2022-12-03T19:46:33.623Z,158857.03
2022-12-03T19:49:37.622Z,158862.25
2022-12-03T19:52:41.515Z,158868.72
2022-12-03T19:55:46.445Z,158841.41
2022-12-03T19:58:54.603Z,158853.13
2022-12-03T20:01:58.365Z,158860.94
2022-12-03T20:05:02.910Z,158867.47
2022-12-03T20:08:08.030Z,158868.72
2022-12-03T20:11:16.571Z,158870.03
2022-12-03T20:14:20.874Z,158857.03
2022-12-03T20:17:24.681Z,158870.03
2022-12-03T20:20:28.771Z,158893.47
2022-12-03T20:23:32.906Z,158896.09
2022-12-03T20:26:36.954Z,158877.84
2022-12-03T20:29:41.177Z,158867.47
2022-12-03T20:32:45.751Z,158901.34
2022-12-03T20:35:53.930Z,158883.09
2022-12-03T20:39:00.931Z,158885.66
2022-12-03T20:42:05.061Z,158870.03
2022-12-03T20:45:09.651Z,158876.59
2022-12-03T20:48:13.984Z,158873.94
2022-12-03T20:51:20.329Z,158864.81
2022-12-03T20:54:24.647Z,158859.66
2022-12-03T20:57:28.571Z,158894.78
2022-12-03T21:00:32.565Z,158879.16
2022-12-03T21:03:36.837Z,158900.00
2022-12-03T21:06:42.328Z,158892.22
2022-12-03T21:09:46.503Z,158896.09
2022-12-03T21:12:50.471Z,158901.34
2022-12-03T21:16:06.913Z,158884.41
2022-12-03T21:19:14.171Z,158886.97
2022-12-03T21:22:22.327Z,158890.88
2022-12-03T21:25:26.404Z,158894.78
2022-12-03T21:28:30.823Z,158883.09
2022-12-03T21:31:37.198Z,158896.09
2022-12-03T21:34:42.236Z,158885.66
2022-12-03T21:37:46.389Z,158906.50
2022-12-03T21:40:51.265Z,158889.56
2022-12-03T21:43:55.761Z,158886.97
2022-12-03T21:47:12.968Z,158915.63
2022-12-03T21:50:17.889Z,158910.41
2022-12-03T21:53:21.838Z,158909.13
2022-12-03T21:56:25.937Z,158876.59
2022-12-03T21:59:30.122Z,158890.88
2022-12-03T22:02:34.355Z,158884.41
2022-12-03T22:05:38.814Z,158922.13
2022-12-03T22:08:43.219Z,158910.41
2022-12-03T22:11:47.092Z,158916.94
2022-12-03T22:14:51.168Z,158918.22
2022-12-03T22:17:55.367Z,158939.03
2022-12-03T22:21:03.523Z,158924.75
2022-12-03T22:24:07.894Z,158920.84
2022-12-03T22:27:13.120Z,158911.72
2022-12-03T22:30:17.490Z,158916.94
2022-12-03T22:33:21.655Z,158924.75
2022-12-03T22:36:25.865Z,158937.78
2022-12-03T22:39:29.776Z,158906.50
2022-12-03T22:42:33.867Z,158914.31
2022-12-03T22:45:38.043Z,158911.72
2022-12-03T22:48:43.390Z,158920.84
2022-12-03T22:51:47.655Z,158928.66
2022-12-03T22:54:51.609Z,158918.22
2022-12-03T22:57:55.978Z,158898.69
2022-12-03T23:01:02.852Z,158910.41
2022-12-03T23:04:08.866Z,158932.56
2022-12-03T23:07:12.982Z,158940.38
2022-12-03T23:10:17.287Z,158915.63
2022-12-03T23:13:21.145Z,158957.25
2022-12-03T23:16:28.142Z,158953.34
2022-12-03T23:19:32.529Z,158942.97
2022-12-03T23:22:36.782Z,158933.88
2022-12-03T23:25:40.710Z,158939.03
2022-12-03T23:28:46.206Z,158920.84
2022-12-03T23:31:50.047Z,158944.28
2022-12-03T23:34:54.030Z,158926.06
2022-12-03T23:37:58.288Z,158918.22
2022-12-03T23:41:07.081Z,158955.94
2022-12-03T23:44:10.990Z,158923.44
2022-12-03T23:47:14.953Z,158940.38
2022-12-03T23:50:19.239Z,158932.56
2022-12-03T23:53:23.383Z,158939.03
2022-12-03T23:56:30.218Z,158924.75
2022-12-03T23:59:34.519Z,158953.34
